sensor_id;sensor_type;location;lat;lon;timestamp;P1;durP1;ratioP1;P2;durP2;ratioP2
22320;SDS011;11328;53.928;18.522;2023-02-26T00:01:44;6.93;;;2.80;;
22320;SDS011;11328;53.928;18.522;2023-02-26T00:04:11;8.38;;;2.95;;
22320;SDS011;11328;53.928;18.522;2023-02-26T00:06:38;6.40;;;2.47;;
22320;SDS011;11328;53.928;18.522;2023-02-26T00:09:21;5.35;;;2.60;;
22320;SDS011;11328;53.928;18.522;2023-02-26T00:11:48;5.97;;;2.47;;
22320;SDS011;11328;53.928;18.522;2023-02-26T00:14:16;6.57;;;2.80;;
22320;SDS011;11328;53.928;18.522;2023-02-26T00:16:46;7.63;;;2.85;;
22320;SDS011;11328;53.928;18.522;2023-02-26T00:19:37;7.15;;;2.63;;
22320;SDS011;11328;53.928;18.522;2023-02-26T00:22:05;6.35;;;2.55;;
22320;SDS011;11328;53.928;18.522;2023-02-26T00:24:32;7.15;;;2.60;;
22320;SDS011;11328;53.928;18.522;2023-02-26T00:26:59;6.70;;;2.08;;
22320;SDS011;11328;53.928;18.522;2023-02-26T00:29:26;5.78;;;2.47;;
22320;SDS011;11328;53.928;18.522;2023-02-26T00:31:54;6.93;;;2.80;;
22320;SDS011;11328;53.928;18.522;2023-02-26T00:34:21;6.70;;;2.58;;
22320;SDS011;11328;53.928;18.522;2023-02-26T00:40:02;9.00;;;3.33;;
22320;SDS011;11328;53.928;18.522;2023-02-26T00:42:46;8.43;;;3.65;;
22320;SDS011;11328;53.928;18.522;2023-02-26T00:45:14;7.22;;;2.75;;
22320;SDS011;11328;53.928;18.522;2023-02-26T00:51:20;10.68;;;5.00;;
22320;SDS011;11328;53.928;18.522;2023-02-26T00:54:05;8.15;;;2.63;;
22320;SDS011;11328;53.928;18.522;2023-02-26T00:56:41;8.65;;;3.22;;
22320;SDS011;11328;53.928;18.522;2023-02-26T00:59:08;7.10;;;2.67;;
22320;SDS011;11328;53.928;18.522;2023-02-26T01:01:36;6.38;;;2.30;;
22320;SDS011;11328;53.928;18.522;2023-02-26T01:04:03;7.70;;;2.40;;
22320;SDS011;11328;53.928;18.522;2023-02-26T01:06:32;6.25;;;2.33;;
22320;SDS011;11328;53.928;18.522;2023-02-26T01:11:33;10.55;;;2.47;;
22320;SDS011;11328;53.928;18.522;2023-02-26T01:14:02;4.95;;;1.83;;
22320;SDS011;11328;53.928;18.522;2023-02-26T01:16:32;4.90;;;1.67;;
22320;SDS011;11328;53.928;18.522;2023-02-26T01:19:19;5.97;;;1.73;;
22320;SDS011;11328;53.928;18.522;2023-02-26T01:22:24;3.25;;;1.40;;
22320;SDS011;11328;53.928;18.522;2023-02-26T01:25:01;6.78;;;1.92;;
22320;SDS011;11328;53.928;18.522;2023-02-26T01:27:35;4.15;;;1.73;;
22320;SDS011;11328;53.928;18.522;2023-02-26T01:30:04;5.18;;;1.92;;
22320;SDS011;11328;53.928;18.522;2023-02-26T01:32:48;4.55;;;1.65;;
22320;SDS011;11328;53.928;18.522;2023-02-26T01:41:47;3.38;;;1.48;;
22320;SDS011;11328;53.928;18.522;2023-02-26T01:45:03;4.97;;;1.88;;
22320;SDS011;11328;53.928;18.522;2023-02-26T01:47:32;4.53;;;1.88;;
22320;SDS011;11328;53.928;18.522;2023-02-26T01:50:18;4.57;;;1.63;;
22320;SDS011;11328;53.928;18.522;2023-02-26T01:55:39;5.85;;;2.15;;
22320;SDS011;11328;53.928;18.522;2023-02-26T02:00:51;6.93;;;2.25;;
22320;SDS011;11328;53.928;18.522;2023-02-26T02:03:19;8.05;;;2.47;;
22320;SDS011;11328;53.928;18.522;2023-02-26T02:05:51;8.63;;;2.67;;
22320;SDS011;11328;53.928;18.522;2023-02-26T02:08:24;6.45;;;2.30;;
22320;SDS011;11328;53.928;18.522;2023-02-26T02:10:51;8.55;;;2.83;;
22320;SDS011;11328;53.928;18.522;2023-02-26T02:13:24;6.05;;;2.58;;
22320;SDS011;11328;53.928;18.522;2023-02-26T02:16:58;4.95;;;2.13;;
22320;SDS011;11328;53.928;18.522;2023-02-26T02:19:23;5.20;;;1.70;;
22320;SDS011;11328;53.928;18.522;2023-02-26T02:28:32;4.30;;;1.75;;
22320;SDS011;11328;53.928;18.522;2023-02-26T02:31:32;3.38;;;1.60;;
22320;SDS011;11328;53.928;18.522;2023-02-26T02:34:17;4.13;;;1.38;;
22320;SDS011;11328;53.928;18.522;2023-02-26T02:37:24;3.45;;;1.35;;
22320;SDS011;11328;53.928;18.522;2023-02-26T02:40:08;5.70;;;2.03;;
22320;SDS011;11328;53.928;18.522;2023-02-26T02:42:53;3.63;;;1.50;;
22320;SDS011;11328;53.928;18.522;2023-02-26T02:45:23;5.63;;;1.60;;
22320;SDS011;11328;53.928;18.522;2023-02-26T02:48:05;5.00;;;1.63;;
22320;SDS011;11328;53.928;18.522;2023-02-26T02:50:58;2.70;;;1.35;;
22320;SDS011;11328;53.928;18.522;2023-02-26T02:53:55;3.80;;;1.50;;
22320;SDS011;11328;53.928;18.522;2023-02-26T02:59:46;7.40;;;1.88;;
22320;SDS011;11328;53.928;18.522;2023-02-26T03:02:32;6.63;;;2.15;;
22320;SDS011;11328;53.928;18.522;2023-02-26T03:05:26;10.02;;;3.47;;
22320;SDS011;11328;53.928;18.522;2023-02-26T03:07:58;6.63;;;2.40;;
22320;SDS011;11328;53.928;18.522;2023-02-26T03:10:40;6.40;;;1.80;;
22320;SDS011;11328;53.928;18.522;2023-02-26T03:13:15;4.35;;;1.75;;
22320;SDS011;11328;53.928;18.522;2023-02-26T03:15:58;5.55;;;1.80;;
22320;SDS011;11328;53.928;18.522;2023-02-26T03:19:28;5.38;;;1.50;;
22320;SDS011;11328;53.928;18.522;2023-02-26T03:25:22;3.97;;;1.60;;
22320;SDS011;11328;53.928;18.522;2023-02-26T03:33:30;3.40;;;1.40;;
22320;SDS011;11328;53.928;18.522;2023-02-26T03:36:21;3.67;;;1.55;;
22320;SDS011;11328;53.928;18.522;2023-02-26T03:44:34;4.43;;;1.52;;
22320;SDS011;11328;53.928;18.522;2023-02-26T03:47:10;4.63;;;1.50;;
22320;SDS011;11328;53.928;18.522;2023-02-26T03:49:42;4.97;;;1.50;;
22320;SDS011;11328;53.928;18.522;2023-02-26T03:52:15;4.90;;;1.90;;
22320;SDS011;11328;53.928;18.522;2023-02-26T03:54:48;3.30;;;1.50;;
22320;SDS011;11328;53.928;18.522;2023-02-26T03:57:25;4.38;;;1.80;;
22320;SDS011;11328;53.928;18.522;2023-02-26T03:59:53;3.78;;;1.40;;
22320;SDS011;11328;53.928;18.522;2023-02-26T04:05:06;5.38;;;1.70;;
22320;SDS011;11328;53.928;18.522;2023-02-26T04:07:41;3.08;;;1.40;;
22320;SDS011;11328;53.928;18.522;2023-02-26T04:10:12;3.45;;;1.05;;
22320;SDS011;11328;53.928;18.522;2023-02-26T04:12:43;3.75;;;1.20;;
22320;SDS011;11328;53.928;18.522;2023-02-26T04:15:10;7.55;;;1.73;;
22320;SDS011;11328;53.928;18.522;2023-02-26T04:17:38;4.00;;;1.23;;
22320;SDS011;11328;53.928;18.522;2023-02-26T04:20:05;5.70;;;1.20;;
22320;SDS011;11328;53.928;18.522;2023-02-26T04:22:35;3.47;;;1.73;;
22320;SDS011;11328;53.928;18.522;2023-02-26T04:25:03;6.75;;;2.05;;
22320;SDS011;11328;53.928;18.522;2023-02-26T04:27:31;4.78;;;1.40;;
22320;SDS011;11328;53.928;18.522;2023-02-26T04:29:58;3.60;;;1.50;;
22320;SDS011;11328;53.928;18.522;2023-02-26T04:32:25;2.95;;;1.20;;
22320;SDS011;11328;53.928;18.522;2023-02-26T04:34:52;4.90;;;1.23;;
22320;SDS011;11328;53.928;18.522;2023-02-26T04:37:19;3.67;;;1.60;;
22320;SDS011;11328;53.928;18.522;2023-02-26T04:39:46;5.63;;;1.40;;
22320;SDS011;11328;53.928;18.522;2023-02-26T04:42:13;4.22;;;1.17;;
22320;SDS011;11328;53.928;18.522;2023-02-26T04:44:40;2.65;;;1.10;;
22320;SDS011;11328;53.928;18.522;2023-02-26T04:47:07;3.30;;;0.98;;
22320;SDS011;11328;53.928;18.522;2023-02-26T04:49:34;3.75;;;1.23;;
22320;SDS011;11328;53.928;18.522;2023-02-26T04:52:01;5.45;;;1.50;;
22320;SDS011;11328;53.928;18.522;2023-02-26T04:54:28;4.22;;;1.27;;
22320;SDS011;11328;53.928;18.522;2023-02-26T04:56:56;3.38;;;1.30;;
22320;SDS011;11328;53.928;18.522;2023-02-26T04:59:23;5.55;;;1.80;;
22320;SDS011;11328;53.928;18.522;2023-02-26T05:01:50;3.92;;;1.48;;
22320;SDS011;11328;53.928;18.522;2023-02-26T05:04:17;4.93;;;1.83;;
22320;SDS011;11328;53.928;18.522;2023-02-26T05:06:44;6.22;;;1.85;;
22320;SDS011;11328;53.928;18.522;2023-02-26T05:09:11;3.70;;;1.40;;
22320;SDS011;11328;53.928;18.522;2023-02-26T05:11:38;5.95;;;1.83;;
22320;SDS011;11328;53.928;18.522;2023-02-26T05:14:05;3.67;;;1.35;;
22320;SDS011;11328;53.928;18.522;2023-02-26T05:16:33;10.43;;;4.00;;
22320;SDS011;11328;53.928;18.522;2023-02-26T05:19:00;9.10;;;1.98;;
22320;SDS011;11328;53.928;18.522;2023-02-26T05:21:27;9.18;;;1.70;;
22320;SDS011;11328;53.928;18.522;2023-02-26T05:23:54;6.35;;;1.63;;
22320;SDS011;11328;53.928;18.522;2023-02-26T05:26:22;4.15;;;1.40;;
22320;SDS011;11328;53.928;18.522;2023-02-26T05:28:50;6.82;;;1.83;;
22320;SDS011;11328;53.928;18.522;2023-02-26T05:31:18;4.35;;;1.60;;
22320;SDS011;11328;53.928;18.522;2023-02-26T05:33:45;6.93;;;1.55;;
22320;SDS011;11328;53.928;18.522;2023-02-26T05:36:12;4.57;;;1.60;;
22320;SDS011;11328;53.928;18.522;2023-02-26T05:38:39;7.28;;;1.50;;
22320;SDS011;11328;53.928;18.522;2023-02-26T05:41:06;6.38;;;1.60;;
22320;SDS011;11328;53.928;18.522;2023-02-26T05:43:33;6.82;;;2.45;;
22320;SDS011;11328;53.928;18.522;2023-02-26T05:46:01;6.85;;;2.22;;
22320;SDS011;11328;53.928;18.522;2023-02-26T05:48:28;12.45;;;2.80;;
22320;SDS011;11328;53.928;18.522;2023-02-26T05:50:55;6.32;;;1.80;;
22320;SDS011;11328;53.928;18.522;2023-02-26T05:53:22;7.70;;;2.10;;
22320;SDS011;11328;53.928;18.522;2023-02-26T05:55:50;7.63;;;2.13;;
22320;SDS011;11328;53.928;18.522;2023-02-26T05:58:19;6.40;;;2.00;;
22320;SDS011;11328;53.928;18.522;2023-02-26T06:00:48;8.23;;;2.22;;
22320;SDS011;11328;53.928;18.522;2023-02-26T06:03:15;8.50;;;2.78;;
22320;SDS011;11328;53.928;18.522;2023-02-26T06:05:42;9.10;;;3.42;;
22320;SDS011;11328;53.928;18.522;2023-02-26T06:08:09;9.30;;;3.70;;
22320;SDS011;11328;53.928;18.522;2023-02-26T06:10:41;11.63;;;3.75;;
22320;SDS011;11328;53.928;18.522;2023-02-26T06:13:08;18.50;;;4.95;;
22320;SDS011;11328;53.928;18.522;2023-02-26T06:15:36;15.57;;;4.15;;
22320;SDS011;11328;53.928;18.522;2023-02-26T06:18:03;11.77;;;3.50;;
22320;SDS011;11328;53.928;18.522;2023-02-26T06:20:30;12.80;;;3.97;;
22320;SDS011;11328;53.928;18.522;2023-02-26T06:22:57;15.45;;;4.28;;
22320;SDS011;11328;53.928;18.522;2023-02-26T06:25:24;11.43;;;3.47;;
22320;SDS011;11328;53.928;18.522;2023-02-26T06:27:51;12.88;;;3.42;;
22320;SDS011;11328;53.928;18.522;2023-02-26T06:30:18;9.45;;;2.90;;
22320;SDS011;11328;53.928;18.522;2023-02-26T06:32:45;9.60;;;2.67;;
22320;SDS011;11328;53.928;18.522;2023-02-26T06:35:13;9.80;;;2.38;;
22320;SDS011;11328;53.928;18.522;2023-02-26T06:37:40;9.35;;;2.60;;
22320;SDS011;11328;53.928;18.522;2023-02-26T06:40:07;10.05;;;2.40;;
22320;SDS011;11328;53.928;18.522;2023-02-26T06:42:36;9.65;;;2.85;;
22320;SDS011;11328;53.928;18.522;2023-02-26T06:45:03;9.38;;;2.80;;
22320;SDS011;11328;53.928;18.522;2023-02-26T06:47:31;11.50;;;3.80;;
22320;SDS011;11328;53.928;18.522;2023-02-26T06:49:58;10.93;;;3.90;;
22320;SDS011;11328;53.928;18.522;2023-02-26T06:52:25;16.60;;;5.40;;
22320;SDS011;11328;53.928;18.522;2023-02-26T06:54:52;17.73;;;6.63;;
22320;SDS011;11328;53.928;18.522;2023-02-26T06:57:19;16.80;;;5.60;;
22320;SDS011;11328;53.928;18.522;2023-02-26T06:59:46;21.23;;;5.45;;
22320;SDS011;11328;53.928;18.522;2023-02-26T07:02:17;16.30;;;5.78;;
22320;SDS011;11328;53.928;18.522;2023-02-26T07:04:47;15.95;;;4.32;;
22320;SDS011;11328;53.928;18.522;2023-02-26T07:07:14;10.60;;;3.33;;
22320;SDS011;11328;53.928;18.522;2023-02-26T07:09:42;10.35;;;3.35;;
22320;SDS011;11328;53.928;18.522;2023-02-26T07:12:11;14.48;;;3.03;;
22320;SDS011;11328;53.928;18.522;2023-02-26T07:14:38;13.13;;;4.20;;
22320;SDS011;11328;53.928;18.522;2023-02-26T07:17:06;13.10;;;3.60;;
22320;SDS011;11328;53.928;18.522;2023-02-26T07:19:33;10.00;;;3.33;;
22320;SDS011;11328;53.928;18.522;2023-02-26T07:22:00;13.50;;;3.65;;
22320;SDS011;11328;53.928;18.522;2023-02-26T07:24:27;11.38;;;3.22;;
22320;SDS011;11328;53.928;18.522;2023-02-26T07:26:54;11.18;;;3.50;;
22320;SDS011;11328;53.928;18.522;2023-02-26T07:29:22;10.48;;;3.42;;
22320;SDS011;11328;53.928;18.522;2023-02-26T07:31:49;10.38;;;3.10;;
22320;SDS011;11328;53.928;18.522;2023-02-26T07:34:16;10.13;;;3.50;;
22320;SDS011;11328;53.928;18.522;2023-02-26T07:36:43;10.63;;;3.35;;
22320;SDS011;11328;53.928;18.522;2023-02-26T07:39:10;11.55;;;3.35;;
22320;SDS011;11328;53.928;18.522;2023-02-26T07:41:37;10.68;;;3.75;;
22320;SDS011;11328;53.928;18.522;2023-02-26T07:44:05;10.07;;;3.55;;
22320;SDS011;11328;53.928;18.522;2023-02-26T07:46:32;11.98;;;3.88;;
22320;SDS011;11328;53.928;18.522;2023-02-26T07:48:59;12.00;;;3.20;;
22320;SDS011;11328;53.928;18.522;2023-02-26T07:51:26;9.48;;;3.25;;
22320;SDS011;11328;53.928;18.522;2023-02-26T07:53:53;10.50;;;3.10;;
22320;SDS011;11328;53.928;18.522;2023-02-26T07:56:20;9.80;;;3.20;;
22320;SDS011;11328;53.928;18.522;2023-02-26T07:58:47;9.43;;;3.40;;
22320;SDS011;11328;53.928;18.522;2023-02-26T08:01:14;12.57;;;3.88;;
22320;SDS011;11328;53.928;18.522;2023-02-26T08:03:41;12.25;;;3.58;;
22320;SDS011;11328;53.928;18.522;2023-02-26T08:06:08;12.20;;;3.10;;
22320;SDS011;11328;53.928;18.522;2023-02-26T08:08:36;9.70;;;3.00;;
22320;SDS011;11328;53.928;18.522;2023-02-26T08:11:03;12.07;;;3.33;;
22320;SDS011;11328;53.928;18.522;2023-02-26T08:13:31;13.32;;;3.55;;
22320;SDS011;11328;53.928;18.522;2023-02-26T08:15:59;9.93;;;3.40;;
22320;SDS011;11328;53.928;18.522;2023-02-26T08:18:26;12.68;;;4.50;;
22320;SDS011;11328;53.928;18.522;2023-02-26T08:20:54;12.07;;;4.13;;
22320;SDS011;11328;53.928;18.522;2023-02-26T08:23:21;12.40;;;3.80;;
22320;SDS011;11328;53.928;18.522;2023-02-26T08:25:49;10.45;;;3.85;;
22320;SDS011;11328;53.928;18.522;2023-02-26T08:28:22;12.17;;;4.50;;
22320;SDS011;11328;53.928;18.522;2023-02-26T08:30:53;10.60;;;4.53;;
22320;SDS011;11328;53.928;18.522;2023-02-26T08:33:23;14.48;;;4.97;;
22320;SDS011;11328;53.928;18.522;2023-02-26T08:35:51;14.93;;;5.07;;
22320;SDS011;11328;53.928;18.522;2023-02-26T08:38:19;15.30;;;5.25;;
22320;SDS011;11328;53.928;18.522;2023-02-26T08:40:49;12.70;;;5.03;;
22320;SDS011;11328;53.928;18.522;2023-02-26T08:43:20;13.98;;;5.45;;
22320;SDS011;11328;53.928;18.522;2023-02-26T08:45:50;12.98;;;4.47;;
22320;SDS011;11328;53.928;18.522;2023-02-26T08:48:20;12.13;;;4.30;;
22320;SDS011;11328;53.928;18.522;2023-02-26T08:50:49;14.85;;;4.95;;
22320;SDS011;11328;53.928;18.522;2023-02-26T08:53:16;13.55;;;4.72;;
22320;SDS011;11328;53.928;18.522;2023-02-26T08:55:46;13.00;;;5.00;;
22320;SDS011;11328;53.928;18.522;2023-02-26T08:58:15;11.18;;;4.70;;
22320;SDS011;11328;53.928;18.522;2023-02-26T09:00:43;14.30;;;4.78;;
22320;SDS011;11328;53.928;18.522;2023-02-26T09:03:10;14.05;;;5.18;;
22320;SDS011;11328;53.928;18.522;2023-02-26T09:05:38;14.27;;;5.38;;
22320;SDS011;11328;53.928;18.522;2023-02-26T09:08:06;11.32;;;4.07;;
22320;SDS011;11328;53.928;18.522;2023-02-26T09:10:34;8.90;;;3.25;;
22320;SDS011;11328;53.928;18.522;2023-02-26T09:13:01;9.98;;;3.50;;
22320;SDS011;11328;53.928;18.522;2023-02-26T09:15:28;10.20;;;3.30;;
22320;SDS011;11328;53.928;18.522;2023-02-26T09:17:55;11.15;;;3.45;;
22320;SDS011;11328;53.928;18.522;2023-02-26T09:20:23;9.85;;;2.95;;
22320;SDS011;11328;53.928;18.522;2023-02-26T09:22:50;14.23;;;3.83;;
22320;SDS011;11328;53.928;18.522;2023-02-26T09:25:17;15.75;;;3.58;;
22320;SDS011;11328;53.928;18.522;2023-02-26T09:27:47;11.60;;;3.50;;
22320;SDS011;11328;53.928;18.522;2023-02-26T09:30:15;13.13;;;3.33;;
22320;SDS011;11328;53.928;18.522;2023-02-26T09:32:42;12.23;;;3.80;;
22320;SDS011;11328;53.928;18.522;2023-02-26T09:35:09;10.80;;;3.85;;
22320;SDS011;11328;53.928;18.522;2023-02-26T09:37:36;12.40;;;3.85;;
22320;SDS011;11328;53.928;18.522;2023-02-26T09:40:05;10.88;;;4.00;;
22320;SDS011;11328;53.928;18.522;2023-02-26T09:42:59;15.68;;;4.47;;
22320;SDS011;11328;53.928;18.522;2023-02-26T09:45:35;15.65;;;4.45;;
22320;SDS011;11328;53.928;18.522;2023-02-26T09:48:10;13.27;;;4.30;;
22320;SDS011;11328;53.928;18.522;2023-02-26T09:50:45;19.33;;;5.05;;
22320;SDS011;11328;53.928;18.522;2023-02-26T09:56:18;17.05;;;6.60;;
22320;SDS011;11328;53.928;18.522;2023-02-26T09:58:51;29.48;;;7.68;;
22320;SDS011;11328;53.928;18.522;2023-02-26T10:12:36;10.80;;;4.47;;
22320;SDS011;11328;53.928;18.522;2023-02-26T10:15:12;14.18;;;5.25;;
22320;SDS011;11328;53.928;18.522;2023-02-26T10:23:39;14.57;;;4.32;;
22320;SDS011;11328;53.928;18.522;2023-02-26T10:26:15;11.68;;;3.95;;
22320;SDS011;11328;53.928;18.522;2023-02-26T10:31:54;8.93;;;3.58;;
22320;SDS011;11328;53.928;18.522;2023-02-26T10:40:18;10.23;;;3.38;;
22320;SDS011;11328;53.928;18.522;2023-02-26T10:43:21;8.27;;;3.20;;
22320;SDS011;11328;53.928;18.522;2023-02-26T10:52:00;10.45;;;4.15;;
22320;SDS011;11328;53.928;18.522;2023-02-26T10:57:23;12.73;;;4.10;;
22320;SDS011;11328;53.928;18.522;2023-02-26T10:59:59;12.05;;;4.97;;
22320;SDS011;11328;53.928;18.522;2023-02-26T11:02:34;14.52;;;4.10;;
22320;SDS011;11328;53.928;18.522;2023-02-26T11:05:12;14.32;;;3.92;;
22320;SDS011;11328;53.928;18.522;2023-02-26T11:07:46;12.65;;;4.20;;
22320;SDS011;11328;53.928;18.522;2023-02-26T11:10:21;11.95;;;4.20;;
22320;SDS011;11328;53.928;18.522;2023-02-26T11:12:52;11.80;;;4.15;;
22320;SDS011;11328;53.928;18.522;2023-02-26T11:15:20;10.10;;;3.10;;
22320;SDS011;11328;53.928;18.522;2023-02-26T11:17:56;14.55;;;3.47;;
22320;SDS011;11328;53.928;18.522;2023-02-26T11:20:30;11.25;;;3.83;;
22320;SDS011;11328;53.928;18.522;2023-02-26T11:23:13;11.50;;;3.33;;
22320;SDS011;11328;53.928;18.522;2023-02-26T11:25:45;9.50;;;3.50;;
22320;SDS011;11328;53.928;18.522;2023-02-26T11:28:31;9.90;;;3.42;;
22320;SDS011;11328;53.928;18.522;2023-02-26T11:31:09;11.95;;;3.42;;
22320;SDS011;11328;53.928;18.522;2023-02-26T11:34:00;9.43;;;3.22;;
22320;SDS011;11328;53.928;18.522;2023-02-26T11:36:30;11.68;;;3.50;;
22320;SDS011;11328;53.928;18.522;2023-02-26T11:39:01;9.73;;;3.30;;
22320;SDS011;11328;53.928;18.522;2023-02-26T11:41:41;12.10;;;3.60;;
22320;SDS011;11328;53.928;18.522;2023-02-26T11:44:13;12.80;;;3.40;;
22320;SDS011;11328;53.928;18.522;2023-02-26T11:47:06;9.63;;;2.95;;
22320;SDS011;11328;53.928;18.522;2023-02-26T11:49:46;11.80;;;3.08;;
22320;SDS011;11328;53.928;18.522;2023-02-26T11:52:45;9.88;;;3.33;;
22320;SDS011;11328;53.928;18.522;2023-02-26T11:58:17;12.10;;;4.13;;
22320;SDS011;11328;53.928;18.522;2023-02-26T12:00:51;11.57;;;4.00;;
22320;SDS011;11328;53.928;18.522;2023-02-26T12:03:25;11.60;;;4.18;;
22320;SDS011;11328;53.928;18.522;2023-02-26T12:05:57;10.60;;;3.65;;
22320;SDS011;11328;53.928;18.522;2023-02-26T12:08:29;10.95;;;4.00;;
22320;SDS011;11328;53.928;18.522;2023-02-26T12:20:01;12.52;;;3.92;;
22320;SDS011;11328;53.928;18.522;2023-02-26T12:28:49;10.27;;;3.17;;
22320;SDS011;11328;53.928;18.522;2023-02-26T12:43:45;9.23;;;3.53;;
22320;SDS011;11328;53.928;18.522;2023-02-26T12:54:47;10.30;;;3.10;;
22320;SDS011;11328;53.928;18.522;2023-02-26T13:00:53;8.88;;;2.78;;
22320;SDS011;11328;53.928;18.522;2023-02-26T13:15:46;11.85;;;3.58;;
22320;SDS011;11328;53.928;18.522;2023-02-26T13:26:38;9.30;;;3.50;;
22320;SDS011;11328;53.928;18.522;2023-02-26T13:31:46;7.80;;;2.70;;
22320;SDS011;11328;53.928;18.522;2023-02-26T13:34:26;11.32;;;3.25;;
22320;SDS011;11328;53.928;18.522;2023-02-26T13:45:55;8.68;;;2.67;;
22320;SDS011;11328;53.928;18.522;2023-02-26T13:48:54;9.77;;;2.88;;
22320;SDS011;11328;53.928;18.522;2023-02-26T13:51:45;5.15;;;1.98;;
22320;SDS011;11328;53.928;18.522;2023-02-26T13:57:04;7.22;;;2.25;;
22320;SDS011;11328;53.928;18.522;2023-02-26T14:00:09;6.22;;;2.28;;
22320;SDS011;11328;53.928;18.522;2023-02-26T14:05:34;8.82;;;2.60;;
22320;SDS011;11328;53.928;18.522;2023-02-26T14:14:04;6.60;;;2.20;;
22320;SDS011;11328;53.928;18.522;2023-02-26T14:17:36;6.10;;;2.33;;
22320;SDS011;11328;53.928;18.522;2023-02-26T14:22:36;7.20;;;2.33;;
22320;SDS011;11328;53.928;18.522;2023-02-26T14:33:30;7.07;;;2.10;;
22320;SDS011;11328;53.928;18.522;2023-02-26T14:36:54;8.85;;;2.30;;
22320;SDS011;11328;53.928;18.522;2023-02-26T14:39:21;6.43;;;2.00;;
22320;SDS011;11328;53.928;18.522;2023-02-26T14:42:03;11.10;;;2.95;;
22320;SDS011;11328;53.928;18.522;2023-02-26T14:44:57;6.68;;;2.67;;
22320;SDS011;11328;53.928;18.522;2023-02-26T14:47:57;4.47;;;1.80;;
22320;SDS011;11328;53.928;18.522;2023-02-26T14:50:37;6.75;;;2.35;;
22320;SDS011;11328;53.928;18.522;2023-02-26T14:59:46;10.35;;;2.88;;
22320;SDS011;11328;53.928;18.522;2023-02-26T15:05:48;9.40;;;2.90;;
22320;SDS011;11328;53.928;18.522;2023-02-26T15:08:35;8.40;;;2.85;;
22320;SDS011;11328;53.928;18.522;2023-02-26T15:23:35;6.15;;;1.92;;
22320;SDS011;11328;53.928;18.522;2023-02-26T15:26:18;9.85;;;3.17;;
22320;SDS011;11328;53.928;18.522;2023-02-26T15:28:51;11.60;;;3.28;;
22320;SDS011;11328;53.928;18.522;2023-02-26T15:31:20;6.90;;;2.70;;
22320;SDS011;11328;53.928;18.522;2023-02-26T15:33:57;9.02;;;3.63;;
22320;SDS011;11328;53.928;18.522;2023-02-26T15:36:27;8.75;;;2.80;;
22320;SDS011;11328;53.928;18.522;2023-02-26T15:38:57;7.45;;;3.42;;
22320;SDS011;11328;53.928;18.522;2023-02-26T15:41:29;8.82;;;3.70;;
22320;SDS011;11328;53.928;18.522;2023-02-26T15:44:03;9.00;;;3.20;;
22320;SDS011;11328;53.928;18.522;2023-02-26T15:46:40;9.35;;;3.42;;
22320;SDS011;11328;53.928;18.522;2023-02-26T15:51:49;6.93;;;2.72;;
22320;SDS011;11328;53.928;18.522;2023-02-26T15:54:19;10.20;;;3.40;;
22320;SDS011;11328;53.928;18.522;2023-02-26T15:56:49;11.32;;;4.00;;
22320;SDS011;11328;53.928;18.522;2023-02-26T15:59:24;11.65;;;3.40;;
22320;SDS011;11328;53.928;18.522;2023-02-26T16:01:55;11.10;;;3.88;;
22320;SDS011;11328;53.928;18.522;2023-02-26T16:04:23;9.18;;;3.60;;
22320;SDS011;11328;53.928;18.522;2023-02-26T16:06:55;7.88;;;3.00;;
22320;SDS011;11328;53.928;18.522;2023-02-26T16:09:27;13.82;;;4.20;;
22320;SDS011;11328;53.928;18.522;2023-02-26T16:12:04;11.07;;;4.20;;
22320;SDS011;11328;53.928;18.522;2023-02-26T16:14:42;12.05;;;4.20;;
22320;SDS011;11328;53.928;18.522;2023-02-26T16:17:22;12.52;;;4.55;;
22320;SDS011;11328;53.928;18.522;2023-02-26T16:22:38;11.25;;;4.35;;
22320;SDS011;11328;53.928;18.522;2023-02-26T16:25:22;11.13;;;3.25;;
22320;SDS011;11328;53.928;18.522;2023-02-26T16:28:03;13.88;;;4.35;;
22320;SDS011;11328;53.928;18.522;2023-02-26T16:30:39;8.82;;;3.25;;
22320;SDS011;11328;53.928;18.522;2023-02-26T16:33:13;13.00;;;4.03;;
22320;SDS011;11328;53.928;18.522;2023-02-26T16:35:45;10.98;;;4.18;;
22320;SDS011;11328;53.928;18.522;2023-02-26T16:38:20;11.73;;;3.95;;
22320;SDS011;11328;53.928;18.522;2023-02-26T16:40:58;11.80;;;4.00;;
22320;SDS011;11328;53.928;18.522;2023-02-26T16:46:36;9.27;;;3.30;;
22320;SDS011;11328;53.928;18.522;2023-02-26T16:49:15;9.15;;;3.63;;
22320;SDS011;11328;53.928;18.522;2023-02-26T16:51:49;9.15;;;3.60;;
22320;SDS011;11328;53.928;18.522;2023-02-26T16:54:24;12.45;;;4.22;;
22320;SDS011;11328;53.928;18.522;2023-02-26T16:56:58;11.02;;;4.13;;
22320;SDS011;11328;53.928;18.522;2023-02-26T16:59:31;15.90;;;4.05;;
22320;SDS011;11328;53.928;18.522;2023-02-26T17:02:14;11.15;;;4.28;;
22320;SDS011;11328;53.928;18.522;2023-02-26T17:04:52;11.63;;;4.60;;
22320;SDS011;11328;53.928;18.522;2023-02-26T17:07:26;11.23;;;4.72;;
22320;SDS011;11328;53.928;18.522;2023-02-26T17:10:15;11.90;;;4.57;;
22320;SDS011;11328;53.928;18.522;2023-02-26T17:13:17;14.10;;;5.32;;
22320;SDS011;11328;53.928;18.522;2023-02-26T17:15:51;15.00;;;5.68;;
22320;SDS011;11328;53.928;18.522;2023-02-26T17:18:19;13.15;;;6.30;;
22320;SDS011;11328;53.928;18.522;2023-02-26T17:20:46;14.50;;;6.57;;
22320;SDS011;11328;53.928;18.522;2023-02-26T17:23:15;14.38;;;6.50;;
22320;SDS011;11328;53.928;18.522;2023-02-26T17:25:44;16.17;;;7.07;;
22320;SDS011;11328;53.928;18.522;2023-02-26T17:28:26;13.13;;;5.75;;
22320;SDS011;11328;53.928;18.522;2023-02-26T17:31:02;11.13;;;4.23;;
22320;SDS011;11328;53.928;18.522;2023-02-26T17:33:30;14.27;;;6.40;;
22320;SDS011;11328;53.928;18.522;2023-02-26T17:35:58;15.73;;;6.78;;
22320;SDS011;11328;53.928;18.522;2023-02-26T17:38:28;15.43;;;6.05;;
22320;SDS011;11328;53.928;18.522;2023-02-26T17:40:58;14.60;;;6.45;;
22320;SDS011;11328;53.928;18.522;2023-02-26T17:43:26;17.08;;;6.78;;
22320;SDS011;11328;53.928;18.522;2023-02-26T17:45:54;15.38;;;5.40;;
22320;SDS011;11328;53.928;18.522;2023-02-26T17:48:21;12.90;;;5.80;;
22320;SDS011;11328;53.928;18.522;2023-02-26T17:50:51;14.15;;;5.82;;
22320;SDS011;11328;53.928;18.522;2023-02-26T17:53:24;17.55;;;6.10;;
22320;SDS011;11328;53.928;18.522;2023-02-26T17:55:52;12.90;;;5.45;;
22320;SDS011;11328;53.928;18.522;2023-02-26T18:00:59;13.95;;;5.15;;
22320;SDS011;11328;53.928;18.522;2023-02-26T18:03:31;12.25;;;5.07;;
22320;SDS011;11328;53.928;18.522;2023-02-26T18:06:00;16.38;;;5.50;;
22320;SDS011;11328;53.928;18.522;2023-02-26T18:08:30;13.68;;;6.47;;
22320;SDS011;11328;53.928;18.522;2023-02-26T18:11:00;17.70;;;6.93;;
22320;SDS011;11328;53.928;18.522;2023-02-26T18:13:29;15.85;;;5.57;;
22320;SDS011;11328;53.928;18.522;2023-02-26T18:15:57;14.80;;;5.70;;
22320;SDS011;11328;53.928;18.522;2023-02-26T18:18:28;11.20;;;5.20;;
22320;SDS011;11328;53.928;18.522;2023-02-26T18:20:57;12.32;;;5.05;;
22320;SDS011;11328;53.928;18.522;2023-02-26T18:23:25;15.15;;;5.88;;
22320;SDS011;11328;53.928;18.522;2023-02-26T18:25:53;13.68;;;5.68;;
22320;SDS011;11328;53.928;18.522;2023-02-26T18:28:22;15.55;;;6.68;;
22320;SDS011;11328;53.928;18.522;2023-02-26T18:30:51;12.13;;;5.55;;
22320;SDS011;11328;53.928;18.522;2023-02-26T18:33:21;11.60;;;4.88;;
22320;SDS011;11328;53.928;18.522;2023-02-26T18:35:51;12.18;;;5.50;;
22320;SDS011;11328;53.928;18.522;2023-02-26T18:38:23;12.55;;;5.22;;
22320;SDS011;11328;53.928;18.522;2023-02-26T18:40:53;15.63;;;6.18;;